sensor_id;sensor_type;location;lat;lon;timestamp;P1;durP1;ratioP1;P2;durP2;ratioP2
58071;SDS011;60383;46.626;18.866;2024-01-06T00:00:28;19.25;;;12.40;;
58071;SDS011;60383;46.626;18.866;2024-01-06T00:02:54;16.05;;;11.90;;
58071;SDS011;60383;46.626;18.866;2024-01-06T00:05:19;18.60;;;12.32;;
58071;SDS011;60383;46.626;18.866;2024-01-06T00:07:45;19.55;;;12.15;;
58071;SDS011;60383;46.626;18.866;2024-01-06T00:10:10;19.63;;;12.45;;
58071;SDS011;60383;46.626;18.866;2024-01-06T00:12:36;17.20;;;11.90;;
58071;SDS011;60383;46.626;18.866;2024-01-06T00:15:01;20.48;;;12.43;;
58071;SDS011;60383;46.626;18.866;2024-01-06T00:17:27;18.15;;;11.55;;
58071;SDS011;60383;46.626;18.866;2024-01-06T00:19:53;18.80;;;12.27;;
58071;SDS011;60383;46.626;18.866;2024-01-06T00:22:18;15.32;;;11.60;;
58071;SDS011;60383;46.626;18.866;2024-01-06T00:24:44;17.70;;;11.70;;
58071;SDS011;60383;46.626;18.866;2024-01-06T00:27:09;18.05;;;11.80;;
58071;SDS011;60383;46.626;18.866;2024-01-06T00:29:35;19.13;;;12.30;;
58071;SDS011;60383;46.626;18.866;2024-01-06T00:32:00;16.70;;;10.90;;
58071;SDS011;60383;46.626;18.866;2024-01-06T00:34:26;18.50;;;11.93;;
58071;SDS011;60383;46.626;18.866;2024-01-06T00:36:51;17.75;;;11.20;;
58071;SDS011;60383;46.626;18.866;2024-01-06T00:39:16;16.23;;;11.57;;
58071;SDS011;60383;46.626;18.866;2024-01-06T00:41:42;19.00;;;12.02;;
58071;SDS011;60383;46.626;18.866;2024-01-06T00:44:07;18.45;;;12.15;;
58071;SDS011;60383;46.626;18.866;2024-01-06T00:46:33;19.58;;;12.68;;
58071;SDS011;60383;46.626;18.866;2024-01-06T00:48:58;18.67;;;11.80;;
58071;SDS011;60383;46.626;18.866;2024-01-06T00:51:24;15.02;;;11.40;;
58071;SDS011;60383;46.626;18.866;2024-01-06T00:53:49;18.35;;;11.80;;
58071;SDS011;60383;46.626;18.866;2024-01-06T00:56:15;18.60;;;12.55;;
58071;SDS011;60383;46.626;18.866;2024-01-06T00:58:40;17.75;;;11.85;;
58071;SDS011;60383;46.626;18.866;2024-01-06T01:01:06;18.33;;;12.63;;
58071;SDS011;60383;46.626;18.866;2024-01-06T01:03:31;19.02;;;12.75;;
58071;SDS011;60383;46.626;18.866;2024-01-06T01:05:57;17.75;;;11.80;;
58071;SDS011;60383;46.626;18.866;2024-01-06T01:08:22;19.75;;;12.38;;
58071;SDS011;60383;46.626;18.866;2024-01-06T01:10:48;21.90;;;11.82;;
58071;SDS011;60383;46.626;18.866;2024-01-06T01:13:13;16.90;;;11.40;;
58071;SDS011;60383;46.626;18.866;2024-01-06T01:15:39;19.38;;;12.48;;
58071;SDS011;60383;46.626;18.866;2024-01-06T01:18:04;19.40;;;11.95;;
58071;SDS011;60383;46.626;18.866;2024-01-06T01:20:30;19.38;;;12.40;;
58071;SDS011;60383;46.626;18.866;2024-01-06T01:22:55;18.23;;;13.02;;
58071;SDS011;60383;46.626;18.866;2024-01-06T01:25:20;17.17;;;12.25;;
58071;SDS011;60383;46.626;18.866;2024-01-06T01:27:46;16.95;;;11.73;;
58071;SDS011;60383;46.626;18.866;2024-01-06T01:30:11;19.10;;;12.07;;
58071;SDS011;60383;46.626;18.866;2024-01-06T01:32:39;21.70;;;12.90;;
58071;SDS011;60383;46.626;18.866;2024-01-06T01:35:04;13.80;;;9.65;;
58071;SDS011;60383;46.626;18.866;2024-01-06T01:37:30;17.55;;;10.32;;
58071;SDS011;60383;46.626;18.866;2024-01-06T01:39:56;20.63;;;12.98;;
58071;SDS011;60383;46.626;18.866;2024-01-06T01:42:22;20.45;;;11.43;;
58071;SDS011;60383;46.626;18.866;2024-01-06T01:44:49;18.05;;;11.60;;
58071;SDS011;60383;46.626;18.866;2024-01-06T01:47:14;17.95;;;10.75;;
58071;SDS011;60383;46.626;18.866;2024-01-06T01:49:43;16.30;;;10.63;;
58071;SDS011;60383;46.626;18.866;2024-01-06T01:52:12;17.02;;;11.35;;
58071;SDS011;60383;46.626;18.866;2024-01-06T01:54:39;22.10;;;12.52;;
58071;SDS011;60383;46.626;18.866;2024-01-06T01:57:06;21.77;;;13.93;;
58071;SDS011;60383;46.626;18.866;2024-01-06T01:59:32;19.83;;;13.43;;
58071;SDS011;60383;46.626;18.866;2024-01-06T02:01:58;20.33;;;12.73;;
58071;SDS011;60383;46.626;18.866;2024-01-06T02:04:25;18.05;;;12.32;;
58071;SDS011;60383;46.626;18.866;2024-01-06T02:06:51;28.05;;;18.50;;
58071;SDS011;60383;46.626;18.866;2024-01-06T02:09:16;20.63;;;12.95;;
58071;SDS011;60383;46.626;18.866;2024-01-06T02:11:42;21.13;;;13.45;;
58071;SDS011;60383;46.626;18.866;2024-01-06T02:14:07;20.23;;;12.57;;
58071;SDS011;60383;46.626;18.866;2024-01-06T02:16:32;18.52;;;12.88;;
58071;SDS011;60383;46.626;18.866;2024-01-06T02:18:58;17.10;;;11.98;;
58071;SDS011;60383;46.626;18.866;2024-01-06T02:21:23;20.77;;;12.90;;
58071;SDS011;60383;46.626;18.866;2024-01-06T02:23:50;19.42;;;12.82;;
58071;SDS011;60383;46.626;18.866;2024-01-06T02:26:16;19.60;;;12.48;;
58071;SDS011;60383;46.626;18.866;2024-01-06T02:28:41;19.77;;;12.75;;
58071;SDS011;60383;46.626;18.866;2024-01-06T02:31:09;19.10;;;12.07;;
58071;SDS011;60383;46.626;18.866;2024-01-06T02:33:35;20.92;;;13.75;;
58071;SDS011;60383;46.626;18.866;2024-01-06T02:36:01;16.15;;;12.25;;
58071;SDS011;60383;46.626;18.866;2024-01-06T02:38:27;21.55;;;15.30;;
58071;SDS011;60383;46.626;18.866;2024-01-06T02:40:52;21.33;;;13.73;;
58071;SDS011;60383;46.626;18.866;2024-01-06T02:43:18;18.35;;;11.95;;
58071;SDS011;60383;46.626;18.866;2024-01-06T02:45:43;18.55;;;12.45;;
58071;SDS011;60383;46.626;18.866;2024-01-06T02:48:09;20.25;;;12.35;;
58071;SDS011;60383;46.626;18.866;2024-01-06T02:50:34;18.95;;;12.18;;
58071;SDS011;60383;46.626;18.866;2024-01-06T02:53:00;18.63;;;12.25;;
58071;SDS011;60383;46.626;18.866;2024-01-06T02:55:25;19.60;;;12.75;;
58071;SDS011;60383;46.626;18.866;2024-01-06T02:57:50;17.90;;;13.07;;
58071;SDS011;60383;46.626;18.866;2024-01-06T03:00:16;16.73;;;12.63;;
58071;SDS011;60383;46.626;18.866;2024-01-06T03:02:42;21.00;;;12.80;;
58071;SDS011;60383;46.626;18.866;2024-01-06T03:05:08;19.25;;;13.20;;
58071;SDS011;60383;46.626;18.866;2024-01-06T03:07:34;17.13;;;12.70;;
58071;SDS011;60383;46.626;18.866;2024-01-06T03:09:59;18.02;;;12.27;;
58071;SDS011;60383;46.626;18.866;2024-01-06T03:12:25;20.15;;;11.65;;
58071;SDS011;60383;46.626;18.866;2024-01-06T03:14:50;17.17;;;11.85;;
58071;SDS011;60383;46.626;18.866;2024-01-06T03:17:16;18.23;;;11.35;;
58071;SDS011;60383;46.626;18.866;2024-01-06T03:19:42;17.85;;;12.57;;
58071;SDS011;60383;46.626;18.866;2024-01-06T03:22:08;17.55;;;11.93;;
58071;SDS011;60383;46.626;18.866;2024-01-06T03:24:33;18.33;;;11.85;;
58071;SDS011;60383;46.626;18.866;2024-01-06T03:26:58;18.80;;;11.95;;
58071;SDS011;60383;46.626;18.866;2024-01-06T03:29:24;19.73;;;14.07;;
58071;SDS011;60383;46.626;18.866;2024-01-06T03:31:49;15.95;;;11.48;;
58071;SDS011;60383;46.626;18.866;2024-01-06T03:34:15;20.60;;;12.90;;
58071;SDS011;60383;46.626;18.866;2024-01-06T03:36:40;17.67;;;11.40;;
58071;SDS011;60383;46.626;18.866;2024-01-06T03:39:06;16.48;;;11.40;;
58071;SDS011;60383;46.626;18.866;2024-01-06T03:41:32;16.95;;;11.60;;
58071;SDS011;60383;46.626;18.866;2024-01-06T03:43:58;18.55;;;11.27;;
58071;SDS011;60383;46.626;18.866;2024-01-06T03:46:24;16.60;;;12.07;;
58071;SDS011;60383;46.626;18.866;2024-01-06T03:48:49;17.05;;;11.70;;
58071;SDS011;60383;46.626;18.866;2024-01-06T03:51:15;16.20;;;11.30;;
58071;SDS011;60383;46.626;18.866;2024-01-06T03:53:40;17.52;;;11.30;;
58071;SDS011;60383;46.626;18.866;2024-01-06T03:56:06;20.10;;;11.52;;
58071;SDS011;60383;46.626;18.866;2024-01-06T03:58:32;17.85;;;11.18;;
58071;SDS011;60383;46.626;18.866;2024-01-06T04:00:58;20.02;;;12.15;;
58071;SDS011;60383;46.626;18.866;2024-01-06T04:03:23;19.50;;;12.35;;
58071;SDS011;60383;46.626;18.866;2024-01-06T04:05:49;17.15;;;11.45;;
58071;SDS011;60383;46.626;18.866;2024-01-06T04:08:14;15.45;;;10.63;;
58071;SDS011;60383;46.626;18.866;2024-01-06T04:10:40;17.35;;;11.05;;
58071;SDS011;60383;46.626;18.866;2024-01-06T04:13:06;17.85;;;11.32;;
58071;SDS011;60383;46.626;18.866;2024-01-06T04:15:32;16.33;;;11.52;;
58071;SDS011;60383;46.626;18.866;2024-01-06T04:18:00;15.43;;;10.93;;
58071;SDS011;60383;46.626;18.866;2024-01-06T04:20:27;23.50;;;15.77;;
58071;SDS011;60383;46.626;18.866;2024-01-06T04:22:54;25.00;;;15.98;;
58071;SDS011;60383;46.626;18.866;2024-01-06T04:25:19;24.67;;;15.45;;
58071;SDS011;60383;46.626;18.866;2024-01-06T04:27:44;27.02;;;18.70;;
58071;SDS011;60383;46.626;18.866;2024-01-06T04:30:12;30.38;;;21.25;;
58071;SDS011;60383;46.626;18.866;2024-01-06T04:32:38;26.35;;;17.30;;
58071;SDS011;60383;46.626;18.866;2024-01-06T04:35:04;22.20;;;15.90;;
58071;SDS011;60383;46.626;18.866;2024-01-06T04:37:29;19.33;;;14.10;;
58071;SDS011;60383;46.626;18.866;2024-01-06T04:39:55;19.42;;;13.85;;
58071;SDS011;60383;46.626;18.866;2024-01-06T04:42:21;20.08;;;14.60;;
58071;SDS011;60383;46.626;18.866;2024-01-06T04:44:47;28.70;;;16.75;;
58071;SDS011;60383;46.626;18.866;2024-01-06T04:47:13;21.90;;;15.25;;
58071;SDS011;60383;46.626;18.866;2024-01-06T04:49:38;19.58;;;14.18;;
58071;SDS011;60383;46.626;18.866;2024-01-06T04:52:04;22.85;;;14.55;;
58071;SDS011;60383;46.626;18.866;2024-01-06T04:54:29;19.38;;;13.35;;
58071;SDS011;60383;46.626;18.866;2024-01-06T04:56:55;19.90;;;13.50;;
58071;SDS011;60383;46.626;18.866;2024-01-06T04:59:21;17.95;;;11.95;;
58071;SDS011;60383;46.626;18.866;2024-01-06T05:01:46;15.68;;;12.10;;
58071;SDS011;60383;46.626;18.866;2024-01-06T05:04:12;16.17;;;10.55;;
58071;SDS011;60383;46.626;18.866;2024-01-06T05:06:37;18.52;;;11.45;;
58071;SDS011;60383;46.626;18.866;2024-01-06T05:09:03;17.10;;;11.77;;
58071;SDS011;60383;46.626;18.866;2024-01-06T05:11:29;20.00;;;11.90;;
58071;SDS011;60383;46.626;18.866;2024-01-06T05:13:54;13.77;;;9.95;;
58071;SDS011;60383;46.626;18.866;2024-01-06T05:16:20;19.23;;;11.77;;
58071;SDS011;60383;46.626;18.866;2024-01-06T05:18:46;17.60;;;11.38;;
58071;SDS011;60383;46.626;18.866;2024-01-06T05:21:11;20.70;;;11.30;;
58071;SDS011;60383;46.626;18.866;2024-01-06T05:23:36;17.60;;;11.27;;
58071;SDS011;60383;46.626;18.866;2024-01-06T05:26:02;17.40;;;11.48;;
58071;SDS011;60383;46.626;18.866;2024-01-06T05:28:27;17.42;;;11.07;;
58071;SDS011;60383;46.626;18.866;2024-01-06T05:30:53;17.95;;;11.07;;
58071;SDS011;60383;46.626;18.866;2024-01-06T05:33:18;15.68;;;10.25;;
58071;SDS011;60383;46.626;18.866;2024-01-06T05:35:44;15.65;;;10.85;;
58071;SDS011;60383;46.626;18.866;2024-01-06T05:38:09;14.65;;;9.45;;
58071;SDS011;60383;46.626;18.866;2024-01-06T05:40:35;17.60;;;10.20;;
58071;SDS011;60383;46.626;18.866;2024-01-06T05:43:00;14.30;;;9.88;;
58071;SDS011;60383;46.626;18.866;2024-01-06T05:45:26;13.60;;;9.50;;
58071;SDS011;60383;46.626;18.866;2024-01-06T05:47:51;11.32;;;8.60;;
58071;SDS011;60383;46.626;18.866;2024-01-06T05:50:17;14.55;;;9.38;;
58071;SDS011;60383;46.626;18.866;2024-01-06T05:52:42;19.42;;;8.95;;
58071;SDS011;60383;46.626;18.866;2024-01-06T05:55:08;15.07;;;9.07;;
58071;SDS011;60383;46.626;18.866;2024-01-06T05:57:34;12.82;;;8.57;;
58071;SDS011;60383;46.626;18.866;2024-01-06T06:00:00;12.70;;;8.10;;
58071;SDS011;60383;46.626;18.866;2024-01-06T06:02:25;17.60;;;9.50;;
58071;SDS011;60383;46.626;18.866;2024-01-06T06:04:51;15.18;;;10.32;;
58071;SDS011;60383;46.626;18.866;2024-01-06T06:07:17;16.80;;;11.07;;
58071;SDS011;60383;46.626;18.866;2024-01-06T06:09:43;15.05;;;10.00;;
58071;SDS011;60383;46.626;18.866;2024-01-06T06:12:12;15.63;;;10.57;;
58071;SDS011;60383;46.626;18.866;2024-01-06T06:14:37;14.98;;;9.45;;
58071;SDS011;60383;46.626;18.866;2024-01-06T06:17:03;16.13;;;9.73;;
58071;SDS011;60383;46.626;18.866;2024-01-06T06:19:28;16.60;;;10.68;;
58071;SDS011;60383;46.626;18.866;2024-01-06T06:21:54;14.32;;;9.38;;
58071;SDS011;60383;46.626;18.866;2024-01-06T06:24:19;16.45;;;9.50;;
58071;SDS011;60383;46.626;18.866;2024-01-06T06:26:45;18.02;;;9.65;;
58071;SDS011;60383;46.626;18.866;2024-01-06T06:29:10;13.25;;;9.52;;
58071;SDS011;60383;46.626;18.866;2024-01-06T06:31:35;15.75;;;10.82;;
58071;SDS011;60383;46.626;18.866;2024-01-06T06:34:01;15.60;;;9.98;;
58071;SDS011;60383;46.626;18.866;2024-01-06T06:36:26;14.98;;;10.27;;
58071;SDS011;60383;46.626;18.866;2024-01-06T06:38:52;15.43;;;10.05;;
58071;SDS011;60383;46.626;18.866;2024-01-06T06:41:19;16.20;;;9.73;;
58071;SDS011;60383;46.626;18.866;2024-01-06T06:43:45;19.60;;;10.55;;
58071;SDS011;60383;46.626;18.866;2024-01-06T06:46:10;13.18;;;8.77;;
58071;SDS011;60383;46.626;18.866;2024-01-06T06:48:35;12.07;;;9.20;;
58071;SDS011;60383;46.626;18.866;2024-01-06T06:51:01;13.07;;;9.10;;
58071;SDS011;60383;46.626;18.866;2024-01-06T06:53:27;15.10;;;9.73;;
58071;SDS011;60383;46.626;18.866;2024-01-06T06:55:53;17.10;;;12.57;;
58071;SDS011;60383;46.626;18.866;2024-01-06T06:58:18;13.80;;;9.02;;
58071;SDS011;60383;46.626;18.866;2024-01-06T07:00:44;12.18;;;8.90;;
58071;SDS011;60383;46.626;18.866;2024-01-06T07:03:09;14.35;;;10.50;;
58071;SDS011;60383;46.626;18.866;2024-01-06T07:05:35;13.68;;;9.63;;
58071;SDS011;60383;46.626;18.866;2024-01-06T07:08:00;13.80;;;8.82;;
58071;SDS011;60383;46.626;18.866;2024-01-06T07:10:26;15.15;;;8.93;;
58071;SDS011;60383;46.626;18.866;2024-01-06T07:12:51;19.15;;;12.65;;
58071;SDS011;60383;46.626;18.866;2024-01-06T07:15:17;19.55;;;13.60;;
58071;SDS011;60383;46.626;18.866;2024-01-06T07:17:42;15.45;;;10.20;;
58071;SDS011;60383;46.626;18.866;2024-01-06T07:20:08;13.75;;;9.90;;
58071;SDS011;60383;46.626;18.866;2024-01-06T07:22:34;11.98;;;8.35;;
58071;SDS011;60383;46.626;18.866;2024-01-06T07:24:59;14.40;;;8.82;;
58071;SDS011;60383;46.626;18.866;2024-01-06T07:27:26;13.55;;;9.35;;
58071;SDS011;60383;46.626;18.866;2024-01-06T07:29:51;14.45;;;8.88;;
58071;SDS011;60383;46.626;18.866;2024-01-06T07:32:17;14.65;;;9.30;;
58071;SDS011;60383;46.626;18.866;2024-01-06T07:34:42;11.52;;;8.07;;
58071;SDS011;60383;46.626;18.866;2024-01-06T07:37:08;11.88;;;8.30;;
58071;SDS011;60383;46.626;18.866;2024-01-06T07:39:34;13.30;;;8.27;;
58071;SDS011;60383;46.626;18.866;2024-01-06T07:41:59;16.38;;;10.30;;
58071;SDS011;60383;46.626;18.866;2024-01-06T07:44:25;11.75;;;8.30;;
58071;SDS011;60383;46.626;18.866;2024-01-06T07:46:51;12.75;;;8.02;;
58071;SDS011;60383;46.626;18.866;2024-01-06T07:49:17;12.52;;;8.65;;
58071;SDS011;60383;46.626;18.866;2024-01-06T07:51:42;12.98;;;8.40;;
58071;SDS011;60383;46.626;18.866;2024-01-06T07:54:08;12.70;;;7.97;;
58071;SDS011;60383;46.626;18.866;2024-01-06T07:56:34;11.82;;;8.07;;
58071;SDS011;60383;46.626;18.866;2024-01-06T07:59:01;12.23;;;8.43;;
58071;SDS011;60383;46.626;18.866;2024-01-06T08:01:26;13.00;;;7.50;;
58071;SDS011;60383;46.626;18.866;2024-01-06T08:03:52;11.25;;;7.70;;
58071;SDS011;60383;46.626;18.866;2024-01-06T08:06:18;14.63;;;8.10;;
58071;SDS011;60383;46.626;18.866;2024-01-06T08:08:43;11.50;;;7.65;;
58071;SDS011;60383;46.626;18.866;2024-01-06T08:11:10;11.00;;;8.18;;
58071;SDS011;60383;46.626;18.866;2024-01-06T08:13:36;13.75;;;8.85;;
58071;SDS011;60383;46.626;18.866;2024-01-06T08:16:02;12.13;;;8.57;;
58071;SDS011;60383;46.626;18.866;2024-01-06T08:18:28;12.60;;;8.55;;
58071;SDS011;60383;46.626;18.866;2024-01-06T08:20:54;15.55;;;9.63;;
58071;SDS011;60383;46.626;18.866;2024-01-06T08:23:20;13.48;;;8.20;;
58071;SDS011;60383;46.626;18.866;2024-01-06T08:25:45;12.55;;;8.85;;
58071;SDS011;60383;46.626;18.866;2024-01-06T08:28:11;12.50;;;8.60;;
58071;SDS011;60383;46.626;18.866;2024-01-06T08:30:37;12.40;;;8.50;;
58071;SDS011;60383;46.626;18.866;2024-01-06T08:33:02;13.85;;;8.55;;
58071;SDS011;60383;46.626;18.866;2024-01-06T08:35:28;11.07;;;8.38;;
58071;SDS011;60383;46.626;18.866;2024-01-06T08:37:54;18.35;;;9.60;;
58071;SDS011;60383;46.626;18.866;2024-01-06T08:40:19;14.85;;;9.70;;
58071;SDS011;60383;46.626;18.866;2024-01-06T08:42:44;13.65;;;8.50;;
58071;SDS011;60383;46.626;18.866;2024-01-06T08:45:10;13.75;;;8.52;;
58071;SDS011;60383;46.626;18.866;2024-01-06T08:47:36;12.82;;;8.38;;
58071;SDS011;60383;46.626;18.866;2024-01-06T08:50:02;14.27;;;8.77;;
58071;SDS011;60383;46.626;18.866;2024-01-06T08:52:28;12.55;;;8.85;;
58071;SDS011;60383;46.626;18.866;2024-01-06T08:54:53;13.18;;;8.48;;
58071;SDS011;60383;46.626;18.866;2024-01-06T08:57:19;12.73;;;8.30;;
58071;SDS011;60383;46.626;18.866;2024-01-06T08:59:44;13.00;;;7.60;;
58071;SDS011;60383;46.626;18.866;2024-01-06T09:02:10;11.50;;;7.82;;
58071;SDS011;60383;46.626;18.866;2024-01-06T09:04:36;11.70;;;7.95;;
58071;SDS011;60383;46.626;18.866;2024-01-06T09:07:01;11.38;;;8.55;;
58071;SDS011;60383;46.626;18.866;2024-01-06T09:09:27;15.00;;;9.45;;
58071;SDS011;60383;46.626;18.866;2024-01-06T09:11:53;16.70;;;10.73;;
58071;SDS011;60383;46.626;18.866;2024-01-06T09:14:18;14.40;;;8.30;;
58071;SDS011;60383;46.626;18.866;2024-01-06T09:16:44;13.57;;;8.15;;
58071;SDS011;60383;46.626;18.866;2024-01-06T09:19:10;12.80;;;8.27;;
58071;SDS011;60383;46.626;18.866;2024-01-06T09:21:36;11.10;;;8.23;;
58071;SDS011;60383;46.626;18.866;2024-01-06T09:24:02;13.30;;;8.95;;
58071;SDS011;60383;46.626;18.866;2024-01-06T09:26:31;12.82;;;8.35;;
58071;SDS011;60383;46.626;18.866;2024-01-06T09:28:57;12.38;;;9.00;;
58071;SDS011;60383;46.626;18.866;2024-01-06T09:31:22;13.27;;;8.38;;
58071;SDS011;60383;46.626;18.866;2024-01-06T09:33:48;13.70;;;8.98;;
58071;SDS011;60383;46.626;18.866;2024-01-06T09:36:15;13.68;;;9.13;;
58071;SDS011;60383;46.626;18.866;2024-01-06T09:38:40;12.93;;;9.07;;
58071;SDS011;60383;46.626;18.866;2024-01-06T09:41:06;16.25;;;8.48;;
58071;SDS011;60383;46.626;18.866;2024-01-06T09:43:31;12.77;;;7.30;;
58071;SDS011;60383;46.626;18.866;2024-01-06T09:46:01;14.60;;;8.35;;
58071;SDS011;60383;46.626;18.866;2024-01-06T09:48:32;12.63;;;7.97;;
58071;SDS011;60383;46.626;18.866;2024-01-06T09:51:04;11.70;;;8.93;;
58071;SDS011;60383;46.626;18.866;2024-01-06T09:53:34;11.00;;;7.78;;
58071;SDS011;60383;46.626;18.866;2024-01-06T09:56:02;12.07;;;8.45;;
58071;SDS011;60383;46.626;18.866;2024-01-06T09:58:29;13.82;;;8.35;;
58071;SDS011;60383;46.626;18.866;2024-01-06T10:00:58;11.82;;;9.82;;
58071;SDS011;60383;46.626;18.866;2024-01-06T10:03:25;11.10;;;8.25;;
58071;SDS011;60383;46.626;18.866;2024-01-06T10:05:51;12.48;;;8.18;;
58071;SDS011;60383;46.626;18.866;2024-01-06T10:08:18;12.10;;;8.60;;
58071;SDS011;60383;46.626;18.866;2024-01-06T10:10:44;12.80;;;9.23;;
58071;SDS011;60383;46.626;18.866;2024-01-06T10:13:10;12.02;;;6.65;;
58071;SDS011;60383;46.626;18.866;2024-01-06T10:15:35;11.10;;;7.53;;
58071;SDS011;60383;46.626;18.866;2024-01-06T10:18:01;11.02;;;7.60;;
58071;SDS011;60383;46.626;18.866;2024-01-06T10:20:28;11.52;;;7.22;;
58071;SDS011;60383;46.626;18.866;2024-01-06T10:22:54;10.98;;;7.28;;
58071;SDS011;60383;46.626;18.866;2024-01-06T10:25:21;10.88;;;6.60;;
58071;SDS011;60383;46.626;18.866;2024-01-06T10:27:48;8.95;;;5.95;;
58071;SDS011;60383;46.626;18.866;2024-01-06T10:30:14;9.13;;;6.43;;
58071;SDS011;60383;46.626;18.866;2024-01-06T10:32:43;11.07;;;7.00;;
58071;SDS011;60383;46.626;18.866;2024-01-06T10:35:09;9.55;;;7.03;;
58071;SDS011;60383;46.626;18.866;2024-01-06T10:37:34;10.75;;;6.35;;
58071;SDS011;60383;46.626;18.866;2024-01-06T10:40:15;8.50;;;6.35;;
58071;SDS011;60383;46.626;18.866;2024-01-06T10:42:41;10.23;;;7.10;;
58071;SDS011;60383;46.626;18.866;2024-01-06T10:45:17;8.27;;;6.43;;
58071;SDS011;60383;46.626;18.866;2024-01-06T10:47:43;10.32;;;6.60;;
58071;SDS011;60383;46.626;18.866;2024-01-06T10:50:09;10.07;;;6.47;;
58071;SDS011;60383;46.626;18.866;2024-01-06T10:52:35;7.50;;;5.53;;
58071;SDS011;60383;46.626;18.866;2024-01-06T10:55:07;8.10;;;5.43;;
58071;SDS011;60383;46.626;18.866;2024-01-06T10:57:32;7.63;;;5.38;;
58071;SDS011;60383;46.626;18.866;2024-01-06T10:59:59;8.50;;;5.45;;
58071;SDS011;60383;46.626;18.866;2024-01-06T11:02:26;7.90;;;5.07;;
58071;SDS011;60383;46.626;18.866;2024-01-06T11:04:52;10.25;;;5.55;;
58071;SDS011;60383;46.626;18.866;2024-01-06T11:07:18;7.65;;;5.60;;
58071;SDS011;60383;46.626;18.866;2024-01-06T11:09:50;7.90;;;5.43;;
58071;SDS011;60383;46.626;18.866;2024-01-06T11:12:21;8.23;;;5.40;;
58071;SDS011;60383;46.626;18.866;2024-01-06T11:14:47;8.27;;;4.93;;
58071;SDS011;60383;46.626;18.866;2024-01-06T11:17:12;8.55;;;5.50;;
58071;SDS011;60383;46.626;18.866;2024-01-06T11:24:50;9.13;;;5.53;;
58071;SDS011;60383;46.626;18.866;2024-01-06T11:27:21;8.18;;;5.75;;
58071;SDS011;60383;46.626;18.866;2024-01-06T11:29:55;8.95;;;5.13;;
58071;SDS011;60383;46.626;18.866;2024-01-06T11:32:28;8.95;;;5.30;;
58071;SDS011;60383;46.626;18.866;2024-01-06T11:35:04;9.55;;;5.57;;
58071;SDS011;60383;46.626;18.866;2024-01-06T11:42:58;7.93;;;5.05;;
58071;SDS011;60383;46.626;18.866;2024-01-06T11:48:08;7.45;;;5.40;;
58071;SDS011;60383;46.626;18.866;2024-01-06T11:50:37;9.05;;;6.60;;
58071;SDS011;60383;46.626;18.866;2024-01-06T11:53:04;8.35;;;6.00;;
58071;SDS011;60383;46.626;18.866;2024-01-06T11:55:31;9.38;;;7.18;;
58071;SDS011;60383;46.626;18.866;2024-01-06T11:58:00;11.32;;;6.40;;
58071;SDS011;60383;46.626;18.866;2024-01-06T12:00:29;12.00;;;7.45;;
58071;SDS011;60383;46.626;18.866;2024-01-06T12:02:55;9.80;;;6.60;;
58071;SDS011;60383;46.626;18.866;2024-01-06T12:05:22;10.38;;;7.13;;
58071;SDS011;60383;46.626;18.866;2024-01-06T12:08:02;8.85;;;6.60;;
58071;SDS011;60383;46.626;18.866;2024-01-06T12:10:32;10.88;;;7.47;;
58071;SDS011;60383;46.626;18.866;2024-01-06T12:12:59;13.95;;;8.40;;
58071;SDS011;60383;46.626;18.866;2024-01-06T12:15:27;10.57;;;7.38;;
58071;SDS011;60383;46.626;18.866;2024-01-06T12:17:53;14.45;;;7.25;;
58071;SDS011;60383;46.626;18.866;2024-01-06T12:20:19;9.88;;;6.47;;
58071;SDS011;60383;46.626;18.866;2024-01-06T12:22:46;11.43;;;8.02;;
58071;SDS011;60383;46.626;18.866;2024-01-06T12:25:11;9.65;;;6.45;;
58071;SDS011;60383;46.626;18.866;2024-01-06T12:27:43;11.20;;;5.90;;
58071;SDS011;60383;46.626;18.866;2024-01-06T12:30:13;10.75;;;6.60;;
58071;SDS011;60383;46.626;18.866;2024-01-06T12:32:44;12.02;;;6.65;;
58071;SDS011;60383;46.626;18.866;2024-01-06T12:35:10;9.18;;;5.60;;
58071;SDS011;60383;46.626;18.866;2024-01-06T12:37:37;9.90;;;6.10;;
58071;SDS011;60383;46.626;18.866;2024-01-06T12:40:08;8.23;;;5.43;;
58071;SDS011;60383;46.626;18.866;2024-01-06T12:42:34;8.93;;;6.30;;
58071;SDS011;60383;46.626;18.866;2024-01-06T12:44:59;9.07;;;5.70;;
58071;SDS011;60383;46.626;18.866;2024-01-06T12:47:25;9.00;;;5.50;;
58071;SDS011;60383;46.626;18.866;2024-01-06T12:49:50;10.70;;;6.72;;
58071;SDS011;60383;46.626;18.866;2024-01-06T12:52:16;7.07;;;4.93;;
58071;SDS011;60383;46.626;18.866;2024-01-06T12:54:41;9.20;;;6.13;;
58071;SDS011;60383;46.626;18.866;2024-01-06T12:57:08;8.32;;;5.03;;
58071;SDS011;60383;46.626;18.866;2024-01-06T12:59:33;7.25;;;5.00;;
58071;SDS011;60383;46.626;18.866;2024-01-06T13:01:59;7.78;;;5.53;;
58071;SDS011;60383;46.626;18.866;2024-01-06T13:04:24;10.50;;;5.55;;
58071;SDS011;60383;46.626;18.866;2024-01-06T13:06:50;9.20;;;5.03;;
58071;SDS011;60383;46.626;18.866;2024-01-06T13:09:16;9.93;;;5.97;;
58071;SDS011;60383;46.626;18.866;2024-01-06T13:11:42;9.45;;;6.65;;
58071;SDS011;60383;46.626;18.866;2024-01-06T13:14:07;11.07;;;7.10;;
58071;SDS011;60383;46.626;18.866;2024-01-06T13:16:33;8.52;;;5.80;;
58071;SDS011;60383;46.626;18.866;2024-01-06T13:18:58;9.43;;;6.70;;
58071;SDS011;60383;46.626;18.866;2024-01-06T13:21:25;9.77;;;5.60;;
58071;SDS011;60383;46.626;18.866;2024-01-06T13:23:50;7.38;;;5.18;;
58071;SDS011;60383;46.626;18.866;2024-01-06T13:26:16;8.50;;;5.45;;
58071;SDS011;60383;46.626;18.866;2024-01-06T13:28:41;10.05;;;4.90;;
58071;SDS011;60383;46.626;18.866;2024-01-06T13:31:07;10.02;;;5.47;;
58071;SDS011;60383;46.626;18.866;2024-01-06T13:33:33;8.00;;;5.95;;
58071;SDS011;60383;46.626;18.866;2024-01-06T13:35:58;8.77;;;5.60;;
58071;SDS011;60383;46.626;18.866;2024-01-06T13:38:24;7.47;;;5.30;;
58071;SDS011;60383;46.626;18.866;2024-01-06T13:40:51;9.65;;;5.40;;
58071;SDS011;60383;46.626;18.866;2024-01-06T13:43:17;8.40;;;5.38;;
58071;SDS011;60383;46.626;18.866;2024-01-06T13:45:43;10.27;;;5.60;;
58071;SDS011;60383;46.626;18.866;2024-01-06T13:48:12;9.13;;;5.30;;
58071;SDS011;60383;46.626;18.866;2024-01-06T13:50:38;11.82;;;5.95;;
58071;SDS011;60383;46.626;18.866;2024-01-06T13:53:04;7.55;;;5.82;;
58071;SDS011;60383;46.626;18.866;2024-01-06T13:55:31;10.07;;;5.60;;
58071;SDS011;60383;46.626;18.866;2024-01-06T13:57:58;8.93;;;5.70;;
58071;SDS011;60383;46.626;18.866;2024-01-06T14:00:24;9.90;;;6.00;;
58071;SDS011;60383;46.626;18.866;2024-01-06T14:02:51;8.65;;;5.82;;
58071;SDS011;60383;46.626;18.866;2024-01-06T14:05:16;9.80;;;6.00;;
58071;SDS011;60383;46.626;18.866;2024-01-06T14:07:44;9.85;;;6.18;;
58071;SDS011;60383;46.626;18.866;2024-01-06T14:10:12;8.93;;;6.10;;
58071;SDS011;60383;46.626;18.866;2024-01-06T14:12:40;10.32;;;6.57;;
58071;SDS011;60383;46.626;18.866;2024-01-06T14:15:06;9.25;;;6.30;;
58071;SDS011;60383;46.626;18.866;2024-01-06T14:17:33;9.43;;;6.10;;
58071;SDS011;60383;46.626;18.866;2024-01-06T14:19:58;11.63;;;6.85;;
58071;SDS011;60383;46.626;18.866;2024-01-06T14:22:24;10.50;;;6.72;;
58071;SDS011;60383;46.626;18.866;2024-01-06T14:24:51;10.20;;;7.18;;